createdAt,value
2019-03-11T00:00:02.060Z,94.20
2019-03-11T00:01:15.072Z,92.70
2019-03-11T00:02:19.357Z,93.30
2019-03-11T00:03:23.599Z,94.20
2019-03-11T00:04:28.088Z,92.90
2019-03-11T00:05:32.559Z,93.30
2019-03-11T00:06:36.755Z,94.20
2019-03-11T00:07:40.957Z,93.50
2019-03-11T00:08:45.285Z,92.60
2019-03-11T00:09:49.564Z,94.50
2019-03-11T00:10:53.727Z,91.00
2019-03-11T00:11:57.967Z,91.00
2019-03-11T00:13:02.512Z,89.10
2019-03-11T00:14:06.737Z,90.80
2019-03-11T00:15:10.997Z,91.30
2019-03-11T00:16:15.184Z,90.00
2019-03-11T00:17:19.476Z,89.20
2019-03-11T00:18:23.601Z,89.90
2019-03-11T00:19:27.820Z,88.10
2019-03-11T00:20:32.093Z,89.50
2019-03-11T00:21:36.356Z,90.20
2019-03-11T00:22:40.658Z,90.40
2019-03-11T00:23:44.986Z,92.70
2019-03-11T00:24:49.207Z,91.20
2019-03-11T00:25:53.373Z,90.30
2019-03-11T00:26:57.869Z,90.10
2019-03-11T00:28:02.116Z,90.90
2019-03-11T00:29:06.417Z,90.40
2019-03-11T00:30:11.143Z,91.60
2019-03-11T00:31:15.425Z,89.70
2019-03-11T00:32:19.676Z,90.10
2019-03-11T00:33:23.833Z,90.00
2019-03-11T00:34:28.111Z,90.70
2019-03-11T00:35:32.386Z,85.80
2019-03-11T00:36:36.581Z,87.90
2019-03-11T00:37:40.803Z,84.90
2019-03-11T00:38:45.002Z,85.50
2019-03-11T00:39:49.511Z,85.40
2019-03-11T00:40:53.848Z,86.10
2019-03-11T00:41:58.190Z,87.50
2019-03-11T00:43:02.509Z,89.50
2019-03-11T00:44:06.695Z,85.60
2019-03-11T00:45:11.495Z,85.50
2019-03-11T00:46:15.803Z,86.40
2019-03-11T00:47:19.984Z,88.10
2019-03-11T00:48:24.296Z,87.10
2019-03-11T00:49:28.601Z,85.90
2019-03-11T00:50:32.884Z,85.40
2019-03-11T00:51:37.022Z,87.00
2019-03-11T00:52:41.356Z,85.40
2019-03-11T00:53:45.712Z,87.70
2019-03-11T00:54:49.977Z,88.30
2019-03-11T00:55:54.179Z,87.10
2019-03-11T00:56:58.541Z,86.00
2019-03-11T00:58:02.731Z,86.50
2019-03-11T00:59:07.056Z,84.60
2019-03-11T01:00:18.255Z,85.70
2019-03-11T01:01:22.583Z,85.00
2019-03-11T01:02:26.745Z,85.00
2019-03-11T01:03:31.048Z,85.90
2019-03-11T01:04:35.248Z,85.20
2019-03-11T01:05:39.421Z,85.80
2019-03-11T01:06:43.777Z,85.80
2019-03-11T01:07:48.003Z,88.30
2019-03-11T01:08:52.275Z,86.90
2019-03-11T01:09:56.767Z,86.60
2019-03-11T01:11:00.955Z,84.20
2019-03-11T01:12:05.371Z,85.80
2019-03-11T01:13:09.727Z,86.00
2019-03-11T01:14:13.898Z,85.20
2019-03-11T01:15:18.166Z,84.60
2019-03-11T01:16:22.382Z,84.60
2019-03-11T01:17:26.604Z,85.90
2019-03-11T01:18:30.974Z,85.40
2019-03-11T01:19:35.267Z,85.20
2019-03-11T01:20:39.558Z,84.40
2019-03-11T01:21:43.723Z,85.20
2019-03-11T01:22:47.898Z,85.20
2019-03-11T01:23:52.133Z,85.40
2019-03-11T01:24:56.395Z,83.80
2019-03-11T01:26:00.682Z,83.90
2019-03-11T01:27:04.949Z,85.10
2019-03-11T01:28:09.189Z,86.40
2019-03-11T01:29:13.422Z,86.80
2019-03-11T01:30:17.636Z,84.80
2019-03-11T01:31:22.095Z,84.30
2019-03-11T01:32:26.684Z,84.40
2019-03-11T01:33:30.832Z,84.80
2019-03-11T01:34:35.079Z,82.80
2019-03-11T01:35:39.235Z,82.20
2019-03-11T01:36:43.405Z,84.70
2019-03-11T01:37:47.685Z,85.00
2019-03-11T01:38:51.836Z,82.90
2019-03-11T01:39:56.059Z,82.60
2019-03-11T01:41:00.232Z,83.50
2019-03-11T01:42:04.477Z,83.20
2019-03-11T01:43:08.711Z,85.00
2019-03-11T01:44:13.033Z,85.30
2019-03-11T01:45:17.388Z,83.30
2019-03-11T01:46:21.777Z,83.80
2019-03-11T01:47:25.955Z,84.00
2019-03-11T01:48:30.236Z,84.10
2019-03-11T01:49:34.575Z,82.90
2019-03-11T01:50:38.787Z,83.00
2019-03-11T01:51:42.958Z,84.00
2019-03-11T01:52:47.120Z,85.40
2019-03-11T01:53:51.303Z,83.90
2019-03-11T01:54:55.658Z,82.40
2019-03-11T01:56:04.176Z,83.30
2019-03-11T01:57:08.469Z,82.80
2019-03-11T01:58:12.709Z,83.80
2019-03-11T01:59:17.020Z,84.40
2019-03-11T02:00:21.519Z,83.10
2019-03-11T02:01:25.718Z,82.80
2019-03-11T02:02:29.861Z,84.00
2019-03-11T02:03:34.027Z,84.90
2019-03-11T02:04:38.320Z,85.00
2019-03-11T02:05:42.667Z,84.70
2019-03-11T02:06:46.857Z,84.10
2019-03-11T02:07:51.148Z,84.70
2019-03-11T02:08:55.528Z,83.70
2019-03-11T02:09:59.787Z,82.70
2019-03-11T02:11:03.986Z,83.50
2019-03-11T02:12:08.179Z,83.30
2019-03-11T02:13:12.511Z,84.10
2019-03-11T02:14:16.811Z,84.40
2019-03-11T02:15:21.144Z,84.40
2019-03-11T02:16:25.301Z,84.40
2019-03-11T02:17:29.577Z,84.30
2019-03-11T02:18:33.799Z,83.90
2019-03-11T02:19:38.043Z,83.50
2019-03-11T02:20:42.219Z,84.50
2019-03-11T02:21:46.505Z,84.00
2019-03-11T02:22:50.670Z,84.50
2019-03-11T02:23:54.931Z,82.10
2019-03-11T02:24:59.249Z,82.50
2019-03-11T02:26:03.446Z,84.60
2019-03-11T02:27:07.567Z,83.40
2019-03-11T02:28:11.908Z,84.00
2019-03-11T02:29:16.113Z,81.50
2019-03-11T02:30:20.399Z,84.30
2019-03-11T02:31:24.833Z,84.30
2019-03-11T02:32:29.177Z,83.30
2019-03-11T02:33:33.448Z,82.20
2019-03-11T02:34:37.744Z,83.00
2019-03-11T02:35:42.114Z,81.90
2019-03-11T02:36:46.339Z,82.30
2019-03-11T02:37:50.652Z,82.10
2019-03-11T02:38:54.947Z,82.00
2019-03-11T02:39:59.193Z,81.10
2019-03-11T02:41:03.494Z,81.20
2019-03-11T02:42:07.774Z,81.40
2019-03-11T02:43:11.953Z,79.80
2019-03-11T02:44:16.285Z,80.60
2019-03-11T02:45:20.637Z,80.40
2019-03-11T02:46:24.916Z,79.50
2019-03-11T02:47:29.281Z,79.70
2019-03-11T02:48:33.557Z,79.00
2019-03-11T02:49:37.775Z,79.00
2019-03-11T02:50:41.988Z,79.20
2019-03-11T02:51:46.523Z,80.10
2019-03-11T02:52:50.814Z,78.50
2019-03-11T02:53:55.116Z,78.80
2019-03-11T02:54:59.311Z,78.60
2019-03-11T02:56:03.549Z,78.50
2019-03-11T02:57:07.807Z,78.40
2019-03-11T02:58:12.018Z,78.50
2019-03-11T02:59:16.311Z,79.00
2019-03-11T03:00:21.075Z,79.70
2019-03-11T03:01:50.472Z,77.70
2019-03-11T03:03:08.892Z,78.70
2019-03-11T03:04:18.302Z,79.30
2019-03-11T03:05:31.888Z,79.40
2019-03-11T03:06:36.035Z,79.40
2019-03-11T03:07:40.327Z,78.70
2019-03-11T03:08:44.640Z,78.40
2019-03-11T03:09:48.925Z,79.00
2019-03-11T03:10:53.164Z,78.70
2019-03-11T03:11:57.384Z,79.40
2019-03-11T03:13:01.655Z,79.20
2019-03-11T03:14:05.992Z,78.70
2019-03-11T03:15:10.563Z,77.70
2019-03-11T03:16:14.935Z,77.70
2019-03-11T03:17:19.278Z,78.40
2019-03-11T03:18:23.475Z,78.20
2019-03-11T03:19:27.819Z,77.70
2019-03-11T03:20:31.990Z,77.40
2019-03-11T03:21:36.315Z,77.70
2019-03-11T03:22:40.525Z,77.80
2019-03-11T03:23:44.810Z,77.00
2019-03-11T03:24:49.029Z,76.80
2019-03-11T03:25:53.296Z,75.50
2019-03-11T03:26:57.505Z,76.20
2019-03-11T03:28:01.874Z,76.30
2019-03-11T03:29:06.281Z,77.70
2019-03-11T03:30:13.323Z,76.50
2019-03-11T03:31:17.544Z,75.50
2019-03-11T03:32:21.936Z,75.70
2019-03-11T03:33:26.197Z,75.50
2019-03-11T03:34:30.836Z,75.20
2019-03-11T03:35:35.120Z,73.80
2019-03-11T03:36:39.395Z,73.80
2019-03-11T03:37:43.566Z,74.30
2019-03-11T03:38:47.866Z,74.60
2019-03-11T03:39:52.251Z,73.50
2019-03-11T03:40:56.596Z,73.70
2019-03-11T03:42:01.279Z,73.20
2019-03-11T03:43:05.812Z,72.70
2019-03-11T03:44:10.212Z,72.90
2019-03-11T03:45:25.016Z,73.30
2019-03-11T03:46:29.178Z,73.40
2019-03-11T03:47:33.336Z,72.70
2019-03-11T03:48:37.816Z,72.50
2019-03-11T03:49:42.130Z,72.70
2019-03-11T03:50:46.319Z,71.80
2019-03-11T03:51:50.483Z,72.00
2019-03-11T03:52:54.804Z,71.00
2019-03-11T03:53:59.132Z,71.50
2019-03-11T03:55:03.446Z,70.60
2019-03-11T03:56:07.640Z,70.80
2019-03-11T03:57:12.204Z,70.80
2019-03-11T03:58:16.456Z,71.10
2019-03-11T03:59:20.654Z,71.10
2019-03-11T04:00:24.941Z,70.70
2019-03-11T04:01:29.221Z,69.50
2019-03-11T04:02:33.477Z,70.20
2019-03-11T04:03:37.700Z,71.30
2019-03-11T04:04:42.106Z,71.30
2019-03-11T04:05:46.261Z,71.30
2019-03-11T04:06:50.507Z,70.50
2019-03-11T04:07:54.883Z,71.60
2019-03-11T04:08:59.082Z,69.70
2019-03-11T04:10:03.560Z,70.40
2019-03-11T04:11:07.824Z,71.10
2019-03-11T04:12:12.056Z,71.00
2019-03-11T04:13:16.350Z,71.40
2019-03-11T04:14:20.651Z,72.00
2019-03-11T04:15:24.948Z,71.30
2019-03-11T04:16:29.270Z,70.30
2019-03-11T04:17:33.577Z,70.40
2019-03-11T04:18:51.421Z,70.50
2019-03-11T04:19:55.721Z,70.30
2019-03-11T04:21:00.015Z,68.90
2019-03-11T04:22:04.235Z,69.20
2019-03-11T04:23:08.503Z,68.70
2019-03-11T04:24:12.766Z,71.50
2019-03-11T04:25:17.164Z,70.80
2019-03-11T04:26:21.474Z,69.90
2019-03-11T04:27:25.777Z,69.20
2019-03-11T04:28:30.102Z,69.10
2019-03-11T04:29:34.245Z,68.80
2019-03-11T04:30:38.490Z,68.80
2019-03-11T04:31:42.690Z,70.10
2019-03-11T04:32:47.014Z,69.40
2019-03-11T04:33:51.396Z,70.50
2019-03-11T04:34:55.600Z,69.40
2019-03-11T04:35:59.795Z,69.40
2019-03-11T04:37:04.092Z,69.40
2019-03-11T04:38:08.303Z,69.20
2019-03-11T04:39:12.692Z,69.40
2019-03-11T04:40:17.015Z,68.90
2019-03-11T04:41:21.314Z,68.70
2019-03-11T04:42:25.674Z,68.30
2019-03-11T04:43:29.899Z,68.90
2019-03-11T04:44:34.223Z,68.70
2019-03-11T04:45:38.453Z,68.00
2019-03-11T04:46:42.791Z,67.40
2019-03-11T04:47:47.147Z,68.00
2019-03-11T04:48:51.324Z,68.70
2019-03-11T04:49:55.639Z,68.50
2019-03-11T04:50:59.813Z,67.90
2019-03-11T04:52:04.033Z,68.60
2019-03-11T04:53:08.187Z,69.00
2019-03-11T04:54:12.317Z,68.90
2019-03-11T04:55:16.724Z,69.00
2019-03-11T04:56:21.045Z,69.10
2019-03-11T04:57:25.345Z,68.70
2019-03-11T04:58:29.623Z,69.40
2019-03-11T04:59:33.829Z,68.60
2019-03-11T05:00:38.128Z,69.00
2019-03-11T05:01:42.645Z,68.40
2019-03-11T05:02:46.921Z,68.20
2019-03-11T05:03:51.206Z,68.20
2019-03-11T05:04:55.493Z,67.70
2019-03-11T05:05:59.667Z,67.50
2019-03-11T05:07:03.827Z,66.90
2019-03-11T05:08:08.409Z,67.40
2019-03-11T05:09:12.643Z,68.30
2019-03-11T05:10:16.837Z,67.70
2019-03-11T05:11:21.062Z,67.70
2019-03-11T05:12:25.461Z,67.50
2019-03-11T05:13:29.677Z,68.00
2019-03-11T05:14:33.903Z,67.70
2019-03-11T05:15:38.053Z,67.90
2019-03-11T05:16:42.281Z,67.20
2019-03-11T05:17:48.580Z,67.40
2019-03-11T05:18:52.566Z,68.40
2019-03-11T05:19:56.806Z,67.00
2019-03-11T05:21:01.026Z,67.20
2019-03-11T05:22:05.209Z,68.00
2019-03-11T05:23:09.512Z,67.30
2019-03-11T05:24:13.667Z,66.40
2019-03-11T05:25:17.966Z,67.30
2019-03-11T05:26:22.238Z,67.30
2019-03-11T05:27:26.760Z,67.20
2019-03-11T05:28:30.972Z,67.20
2019-03-11T05:29:35.303Z,67.00
2019-03-11T05:30:39.593Z,67.80
2019-03-11T05:31:43.911Z,68.70
2019-03-11T05:32:48.124Z,66.70
2019-03-11T05:33:52.409Z,67.00
2019-03-11T05:34:56.977Z,68.10
2019-03-11T05:36:01.151Z,67.80
2019-03-11T05:37:05.413Z,68.10
2019-03-11T05:38:09.633Z,67.50
2019-03-11T05:39:13.895Z,67.10
2019-03-11T05:40:18.147Z,68.00
2019-03-11T05:41:22.431Z,68.90
2019-03-11T05:42:26.595Z,68.90
2019-03-11T05:43:30.778Z,70.20
2019-03-11T05:44:35.027Z,72.20
2019-03-11T05:45:39.279Z,72.50
2019-03-11T05:46:43.421Z,73.90
2019-03-11T05:47:47.784Z,76.10
2019-03-11T05:48:51.965Z,75.80
2019-03-11T05:49:56.248Z,73.00
2019-03-11T05:51:00.570Z,75.50
2019-03-11T05:52:04.715Z,75.60
2019-03-11T05:53:09.025Z,73.00
2019-03-11T05:54:13.327Z,72.10
2019-03-11T05:55:17.642Z,73.50
2019-03-11T05:56:21.929Z,74.70
2019-03-11T05:57:26.096Z,74.20
2019-03-11T05:58:30.271Z,73.70
2019-03-11T05:59:34.483Z,75.00
2019-03-11T06:00:38.722Z,74.60
2019-03-11T06:01:42.951Z,75.00
2019-03-11T06:02:47.265Z,72.10
2019-03-11T06:03:51.513Z,73.00
2019-03-11T06:04:55.669Z,72.60
2019-03-11T06:06:00.004Z,73.00
2019-03-11T06:07:04.111Z,72.90
2019-03-11T06:08:09.835Z,72.80
2019-03-11T06:09:14.010Z,73.50
2019-03-11T06:10:18.235Z,75.20
2019-03-11T06:11:22.375Z,74.80
2019-03-11T06:12:26.557Z,73.50
2019-03-11T06:13:35.942Z,73.40
2019-03-11T06:14:36.982Z,73.40
2019-03-11T06:15:41.243Z,73.40
2019-03-11T06:16:45.562Z,74.70
2019-03-11T06:17:49.906Z,74.90
2019-03-11T06:18:54.317Z,74.00
2019-03-11T06:20:12.203Z,74.80
2019-03-11T06:21:35.447Z,73.80
2019-03-11T06:22:39.623Z,73.00
2019-03-11T06:23:43.917Z,73.70
2019-03-11T06:24:48.107Z,72.90
2019-03-11T06:25:52.462Z,74.50
2019-03-11T06:26:56.696Z,74.10
2019-03-11T06:28:00.995Z,73.80
2019-03-11T06:29:05.245Z,73.80
2019-03-11T06:30:09.916Z,74.60
2019-03-11T06:31:14.253Z,75.40
2019-03-11T06:32:18.619Z,75.30
2019-03-11T06:33:23.304Z,76.40
2019-03-11T06:34:27.504Z,77.40
2019-03-11T06:35:31.868Z,79.00
2019-03-11T06:36:36.211Z,81.70
2019-03-11T06:37:40.459Z,84.60
2019-03-11T06:38:44.701Z,84.20
2019-03-11T06:39:48.948Z,84.80
2019-03-11T06:40:53.171Z,82.60
2019-03-11T06:41:57.457Z,84.60
2019-03-11T06:43:01.631Z,83.50
2019-03-11T06:44:05.950Z,84.80
2019-03-11T06:45:10.302Z,85.40
2019-03-11T06:46:14.509Z,81.70
2019-03-11T06:47:18.782Z,82.70
2019-03-11T06:48:23.079Z,82.50
2019-03-11T06:49:27.338Z,82.50
2019-03-11T06:50:31.658Z,83.30
2019-03-11T06:51:36.011Z,82.40
2019-03-11T06:52:40.272Z,81.70
2019-03-11T06:53:44.454Z,81.80
2019-03-11T06:54:48.671Z,80.90
2019-03-11T06:55:52.974Z,79.00
2019-03-11T06:56:57.293Z,80.20
2019-03-11T06:58:01.601Z,81.70
2019-03-11T06:59:05.833Z,80.30
2019-03-11T07:00:12.147Z,81.30
2019-03-11T07:01:16.457Z,80.90
2019-03-11T07:02:20.755Z,81.10
2019-03-11T07:03:24.965Z,79.70
2019-03-11T07:04:29.317Z,76.20
2019-03-11T07:05:33.586Z,78.10
2019-03-11T07:06:37.887Z,79.30
2019-03-11T07:07:42.244Z,79.30
2019-03-11T07:08:46.515Z,79.50
2019-03-11T07:09:50.779Z,80.20
2019-03-11T07:10:55.061Z,78.20
2019-03-11T07:11:59.329Z,78.00
2019-03-11T07:13:03.613Z,76.70
2019-03-11T07:14:07.840Z,78.90
2019-03-11T07:15:12.325Z,78.80
2019-03-11T07:16:16.638Z,76.80
2019-03-11T07:17:20.927Z,76.40
2019-03-11T07:18:25.223Z,76.30
2019-03-11T07:19:29.479Z,76.70
2019-03-11T07:20:33.767Z,77.10
2019-03-11T07:21:37.969Z,77.40
2019-03-11T07:22:42.289Z,76.30
2019-03-11T07:23:46.887Z,74.70
2019-03-11T07:24:51.223Z,76.10
2019-03-11T07:25:55.406Z,76.40
2019-03-11T07:26:59.661Z,75.50
2019-03-11T07:28:03.852Z,76.50
2019-03-11T07:29:08.173Z,75.80
2019-03-11T07:30:13.353Z,76.70
2019-03-11T07:31:17.639Z,73.40
2019-03-11T07:32:21.941Z,74.50
2019-03-11T07:33:26.143Z,75.50
2019-03-11T07:34:30.428Z,76.80
2019-03-11T07:35:34.676Z,74.80
2019-03-11T07:36:38.942Z,73.40
2019-03-11T07:37:43.604Z,72.40
2019-03-11T07:38:47.793Z,75.00
2019-03-11T07:39:51.982Z,74.90
2019-03-11T07:40:56.308Z,76.20
2019-03-11T07:42:00.635Z,75.70
2019-03-11T07:43:04.819Z,74.50
2019-03-11T07:44:08.917Z,73.80
2019-03-11T07:45:13.216Z,74.60
2019-03-11T07:46:17.852Z,73.40
2019-03-11T07:47:22.033Z,75.00
2019-03-11T07:48:26.241Z,76.60
2019-03-11T07:49:30.535Z,81.50
2019-03-11T07:50:34.775Z,91.40
2019-03-11T07:51:39.079Z,95.10
2019-03-11T07:52:43.418Z,99.90
2019-03-11T07:53:47.607Z,99.90
2019-03-11T07:54:52.317Z,99.90
2019-03-11T07:55:56.611Z,99.90
2019-03-11T07:57:00.945Z,99.90
2019-03-11T07:58:05.559Z,99.90
2019-03-11T07:59:09.783Z,99.90
2019-03-11T08:00:14.251Z,99.90
2019-03-11T08:01:18.444Z,99.90
2019-03-11T08:02:22.773Z,99.90
2019-03-11T08:03:27.109Z,99.90
2019-03-11T08:04:31.325Z,99.90
2019-03-11T08:05:35.506Z,99.90
2019-03-11T08:06:39.630Z,99.90
2019-03-11T08:07:43.938Z,99.90
2019-03-11T08:08:48.265Z,99.90
2019-03-11T08:09:52.533Z,99.90
2019-03-11T08:10:56.649Z,99.90
2019-03-11T08:12:00.938Z,99.90
2019-03-11T08:13:07.794Z,99.90
2019-03-11T08:14:11.041Z,99.90
2019-03-11T08:15:15.403Z,99.90
2019-03-11T08:16:19.678Z,99.90
2019-03-11T08:17:23.897Z,99.90
2019-03-11T08:18:34.918Z,99.90
2019-03-11T08:19:34.189Z,99.90
2019-03-11T08:20:38.404Z,99.90
2019-03-11T08:21:42.590Z,99.90
2019-03-11T08:22:46.789Z,99.90
2019-03-11T08:23:51.029Z,99.90
2019-03-11T08:24:55.256Z,99.90
2019-03-11T08:25:59.537Z,99.90
2019-03-11T08:27:03.911Z,99.90
2019-03-11T08:28:08.149Z,99.90
2019-03-11T08:29:12.486Z,99.90
2019-03-11T08:30:17.122Z,99.90
2019-03-11T08:31:21.292Z,99.90
2019-03-11T08:32:25.611Z,99.90
2019-03-11T08:33:29.937Z,99.90
2019-03-11T08:34:34.279Z,99.90
2019-03-11T08:35:38.788Z,99.90
2019-03-11T08:36:43.126Z,99.90
2019-03-11T08:37:47.345Z,99.90
2019-03-11T08:38:51.631Z,99.90
2019-03-11T08:39:56.005Z,99.90
2019-03-11T08:41:00.185Z,99.90
2019-03-11T08:42:04.495Z,99.90
2019-03-11T08:43:08.746Z,99.90
2019-03-11T08:44:12.973Z,99.90
2019-03-11T08:45:17.575Z,99.90
2019-03-11T08:46:21.932Z,99.90
2019-03-11T08:47:26.115Z,99.90
2019-03-11T08:48:30.268Z,99.90
2019-03-11T08:49:34.435Z,99.90
2019-03-11T08:50:38.818Z,99.90
2019-03-11T08:51:43.093Z,99.90
2019-03-11T08:52:47.382Z,99.90
2019-03-11T08:53:51.897Z,99.90
2019-03-11T08:54:56.150Z,99.90
2019-03-11T08:56:00.477Z,99.90
2019-03-11T08:57:04.765Z,99.90
2019-03-11T08:58:09.040Z,99.90
2019-03-11T08:59:13.739Z,99.90
2019-03-11T09:00:18.380Z,99.90
2019-03-11T09:01:22.601Z,99.90
2019-03-11T09:02:26.874Z,99.90
2019-03-11T09:03:31.179Z,99.90
2019-03-11T09:04:35.354Z,99.90
2019-03-11T09:05:40.023Z,99.90
2019-03-11T09:06:44.397Z,99.90
2019-03-11T09:07:48.631Z,99.90
2019-03-11T09:08:52.797Z,99.90
2019-03-11T09:09:57.082Z,99.90
2019-03-11T09:11:01.293Z,99.90
2019-03-11T09:12:05.632Z,99.90
2019-03-11T09:13:09.991Z,99.90
2019-03-11T09:14:14.297Z,99.90
2019-03-11T09:15:18.813Z,99.90
2019-03-11T09:16:23.141Z,99.90
2019-03-11T09:17:27.481Z,99.90
2019-03-11T09:18:31.717Z,99.90
2019-03-11T09:19:36.752Z,99.90
2019-03-11T09:20:41.218Z,99.90
2019-03-11T09:21:45.556Z,99.90
2019-03-11T09:22:49.761Z,99.90
2019-03-11T09:23:53.927Z,99.90
2019-03-11T09:24:58.221Z,99.90
2019-03-11T09:26:02.565Z,99.90
2019-03-11T09:27:07.122Z,99.90
2019-03-11T09:28:11.451Z,98.90
2019-03-11T09:29:15.659Z,99.90
2019-03-11T09:30:20.087Z,99.90
2019-03-11T09:31:24.305Z,99.90
2019-03-11T09:32:28.510Z,99.90
2019-03-11T09:33:32.679Z,99.90
2019-03-11T09:34:37.223Z,99.90
2019-03-11T09:35:41.443Z,99.90
2019-03-11T09:36:45.799Z,99.90
2019-03-11T09:37:49.977Z,99.90
2019-03-11T09:38:54.298Z,99.90
2019-03-11T09:40:00.439Z,99.90
2019-03-11T09:41:04.633Z,99.90
2019-03-11T09:42:09.379Z,99.90
2019-03-11T09:43:13.613Z,99.90
2019-03-11T09:44:17.870Z,99.90
2019-03-11T09:45:24.220Z,99.90
2019-03-11T09:46:28.105Z,99.90
2019-03-11T09:47:32.296Z,99.90
2019-03-11T09:48:36.583Z,99.90
2019-03-11T09:49:41.165Z,99.90
2019-03-11T09:50:45.375Z,99.90
2019-03-11T09:51:49.627Z,99.90
2019-03-11T09:52:53.857Z,99.90
2019-03-11T09:53:58.185Z,99.90
2019-03-11T09:55:02.546Z,99.90
2019-03-11T09:56:06.763Z,99.90
2019-03-11T09:57:10.939Z,99.90
2019-03-11T09:58:15.295Z,99.90
2019-03-11T09:59:19.567Z,99.90
2019-03-11T10:00:23.915Z,99.90
2019-03-11T10:01:28.164Z,99.90
2019-03-11T10:02:32.415Z,99.90
2019-03-11T10:03:36.989Z,99.90
2019-03-11T10:04:41.264Z,99.90
2019-03-11T10:05:45.463Z,99.90
2019-03-11T10:06:49.785Z,99.90
2019-03-11T10:07:54.053Z,99.90
2019-03-11T10:08:58.554Z,99.90
2019-03-11T10:10:02.824Z,99.90
2019-03-11T10:11:07.000Z,99.90
2019-03-11T10:12:11.192Z,99.90
2019-03-11T10:13:15.356Z,99.90
2019-03-11T10:14:19.739Z,99.90
2019-03-11T10:15:24.123Z,99.90
2019-03-11T10:16:28.483Z,99.90
2019-03-11T10:17:32.689Z,99.90
2019-03-11T10:18:36.997Z,99.90
2019-03-11T10:19:41.334Z,99.90
2019-03-11T10:20:45.642Z,99.90
2019-03-11T10:21:49.909Z,99.90
2019-03-11T10:22:54.094Z,99.90
2019-03-11T10:23:59.364Z,99.90
2019-03-11T10:25:04.224Z,99.90
2019-03-11T10:26:08.506Z,99.90
2019-03-11T10:27:12.834Z,99.90
2019-03-11T10:28:17.106Z,99.90
2019-03-11T10:29:21.255Z,99.90
2019-03-11T10:30:25.961Z,99.90
2019-03-11T10:31:30.167Z,99.90
2019-03-11T10:32:34.474Z,99.90
2019-03-11T10:33:38.689Z,99.90
2019-03-11T10:34:42.990Z,99.90
2019-03-11T10:35:47.228Z,99.90
2019-03-11T10:36:51.443Z,99.90
2019-03-11T10:37:55.705Z,99.90
2019-03-11T10:38:59.981Z,99.90
2019-03-11T10:40:04.795Z,99.90
2019-03-11T10:41:08.965Z,99.90
2019-03-11T10:42:13.183Z,99.90
2019-03-11T10:43:17.507Z,99.90
2019-03-11T10:44:21.705Z,99.90
2019-03-11T10:45:31.858Z,99.90
2019-03-11T10:46:32.043Z,99.90
2019-03-11T10:47:36.303Z,99.90
2019-03-11T10:48:40.465Z,99.90
2019-03-11T10:49:44.799Z,99.90
2019-03-11T10:50:49.164Z,99.90
2019-03-11T10:51:53.555Z,99.90
2019-03-11T10:52:58.115Z,99.90
2019-03-11T10:54:02.745Z,99.90
2019-03-11T10:55:08.233Z,99.90
2019-03-11T10:56:12.403Z,99.90
2019-03-11T10:57:16.713Z,99.90
2019-03-11T10:58:20.873Z,99.90
2019-03-11T10:59:25.145Z,99.90
2019-03-11T11:00:29.782Z,99.90
2019-03-11T11:01:33.981Z,99.90
2019-03-11T11:02:38.151Z,99.90
2019-03-11T11:03:42.339Z,99.90
2019-03-11T11:04:48.063Z,99.90
2019-03-11T11:05:52.496Z,99.90
2019-03-11T11:06:56.675Z,99.90
2019-03-11T11:08:00.860Z,99.90
2019-03-11T11:09:07.223Z,99.90
2019-03-11T11:10:12.092Z,99.90
2019-03-11T11:11:16.432Z,99.90
2019-03-11T11:12:20.731Z,99.90
2019-03-11T11:13:24.974Z,99.90
2019-03-11T11:14:29.272Z,99.90
2019-03-11T11:15:33.645Z,99.90
2019-03-11T11:16:37.911Z,99.90
2019-03-11T11:17:42.226Z,99.90
2019-03-11T11:18:46.563Z,99.90
2019-03-11T11:19:50.869Z,99.90
2019-03-11T11:20:55.104Z,99.90
2019-03-11T11:21:59.444Z,99.90
2019-03-11T11:23:03.970Z,98.70
2019-03-11T11:24:08.351Z,99.90
2019-03-11T11:25:14.781Z,99.90
2019-03-11T11:26:19.109Z,97.70
2019-03-11T11:27:23.431Z,99.90
2019-03-11T11:28:27.730Z,99.90
2019-03-11T11:29:32.003Z,99.90
2019-03-11T11:30:36.494Z,99.90
2019-03-11T11:31:40.869Z,99.90
2019-03-11T11:32:45.041Z,99.90
2019-03-11T11:33:49.185Z,97.90
2019-03-11T11:34:53.419Z,96.90
2019-03-11T11:35:57.569Z,99.40
2019-03-11T11:37:01.798Z,99.90
2019-03-11T11:38:06.126Z,99.90
2019-03-11T11:39:10.314Z,99.90
2019-03-11T11:40:16.801Z,99.90
2019-03-11T11:41:21.047Z,99.20
2019-03-11T11:42:25.308Z,99.90
2019-03-11T11:43:29.630Z,99.90
2019-03-11T11:44:33.821Z,99.90
2019-03-11T11:45:38.105Z,99.90
2019-03-11T11:46:42.340Z,99.90
2019-03-11T11:47:46.545Z,99.90
2019-03-11T11:48:50.717Z,99.90
2019-03-11T11:49:55.103Z,99.90
2019-03-11T11:50:59.337Z,99.90
2019-03-11T11:52:03.685Z,99.90
2019-03-11T11:53:08.845Z,99.90
2019-03-11T11:54:13.094Z,99.90
2019-03-11T11:55:17.683Z,99.90
2019-03-11T11:56:21.997Z,99.90
2019-03-11T11:57:26.355Z,99.90
2019-03-11T11:58:30.577Z,99.90
2019-03-11T11:59:34.849Z,99.90
2019-03-11T12:00:40.553Z,99.90
2019-03-11T12:01:44.868Z,99.90
2019-03-11T12:02:49.273Z,99.90
2019-03-11T12:03:53.448Z,99.90
2019-03-11T12:04:57.763Z,99.80
2019-03-11T12:06:02.033Z,99.50
2019-03-11T12:07:06.355Z,99.90
2019-03-11T12:08:10.677Z,99.90
2019-03-11T12:09:14.896Z,99.90
2019-03-11T12:10:19.649Z,99.90
2019-03-11T12:11:23.813Z,99.90
2019-03-11T12:12:27.967Z,99.90
2019-03-11T12:13:32.313Z,99.90
2019-03-11T12:14:36.581Z,99.90
2019-03-11T12:15:40.857Z,99.90
2019-03-11T12:16:45.057Z,99.90
2019-03-11T12:17:49.362Z,99.90
2019-03-11T12:18:54.021Z,99.90
2019-03-11T12:19:58.303Z,99.90
2019-03-11T12:21:02.907Z,99.90
2019-03-11T12:22:07.249Z,99.90
2019-03-11T12:23:11.537Z,99.90
2019-03-11T12:24:16.122Z,99.90
2019-03-11T12:25:20.505Z,99.90
2019-03-11T12:26:24.684Z,99.90
2019-03-11T12:27:28.882Z,99.90
2019-03-11T12:28:33.055Z,99.90
2019-03-11T12:29:37.389Z,99.90
2019-03-11T12:30:41.604Z,99.90
2019-03-11T12:31:45.774Z,99.90
2019-03-11T12:32:50.089Z,99.90
2019-03-11T12:33:54.334Z,99.90
2019-03-11T12:34:58.668Z,99.90
2019-03-11T12:36:03.047Z,99.90
2019-03-11T12:37:07.369Z,99.90
2019-03-11T12:38:11.662Z,99.90
2019-03-11T12:39:16.057Z,99.90
2019-03-11T12:40:20.552Z,99.90
2019-03-11T12:41:24.911Z,99.90
2019-03-11T12:42:29.267Z,99.90
2019-03-11T12:43:33.537Z,99.90
2019-03-11T12:44:37.817Z,95.70
2019-03-11T12:45:42.066Z,98.40
2019-03-11T12:46:46.369Z,94.80
2019-03-11T12:47:50.641Z,90.10
2019-03-11T12:48:54.954Z,94.00
2019-03-11T12:49:59.153Z,99.00
2019-03-11T12:51:03.476Z,89.30
2019-03-11T12:52:07.739Z,87.00
2019-03-11T12:53:12.060Z,92.50
2019-03-11T12:54:16.227Z,94.30
2019-03-11T12:55:21.612Z,94.20
2019-03-11T12:56:26.117Z,92.30
2019-03-11T12:57:30.459Z,86.50
2019-03-11T12:58:41.342Z,91.80
2019-03-11T12:59:41.024Z,94.10
2019-03-11T13:00:45.363Z,92.50
2019-03-11T13:01:50.080Z,91.80
2019-03-11T13:02:54.601Z,86.20
2019-03-11T13:03:59.209Z,88.10
2019-03-11T13:05:03.402Z,83.90
2019-03-11T13:06:07.705Z,83.80
2019-03-11T13:07:11.919Z,78.70
2019-03-11T13:08:16.131Z,80.40
2019-03-11T13:09:20.461Z,84.10
2019-03-11T13:10:24.682Z,76.20
2019-03-11T13:11:29.235Z,80.40
2019-03-11T13:12:33.519Z,86.40
2019-03-11T13:13:37.755Z,85.20
2019-03-11T13:14:41.969Z,82.40
2019-03-11T13:15:46.183Z,83.50
2019-03-11T13:16:50.455Z,82.00
2019-03-11T13:17:54.775Z,80.20
2019-03-11T13:19:12.253Z,76.20
2019-03-11T13:20:09.281Z,77.50
2019-03-11T13:21:33.570Z,74.20
2019-03-11T13:22:37.859Z,78.70
2019-03-11T13:23:42.170Z,78.30
2019-03-11T13:24:46.469Z,72.60
2019-03-11T13:25:50.714Z,73.10
2019-03-11T13:26:54.975Z,77.50
2019-03-11T13:27:59.263Z,75.60
2019-03-11T13:29:03.490Z,69.50
2019-03-11T13:30:08.617Z,70.60
2019-03-11T13:31:12.785Z,74.00
2019-03-11T13:32:17.353Z,72.60
2019-03-11T13:33:21.665Z,72.00
2019-03-11T13:34:25.941Z,69.20
2019-03-11T13:35:30.263Z,68.30
2019-03-11T13:36:34.589Z,70.50
2019-03-11T13:37:38.891Z,70.70
2019-03-11T13:38:43.169Z,75.50
2019-03-11T13:39:47.359Z,74.50
2019-03-11T13:40:51.619Z,76.00
2019-03-11T13:41:56.037Z,72.00
2019-03-11T13:43:00.387Z,71.50
2019-03-11T13:44:04.737Z,72.00
2019-03-11T13:45:09.729Z,73.50
2019-03-11T13:46:14.201Z,76.40
2019-03-11T13:47:18.569Z,74.00
2019-03-11T13:48:22.875Z,72.90
2019-03-11T13:49:27.087Z,72.80
2019-03-11T13:50:31.821Z,73.00